FQMA/MPM METAR and TAF weather

Enter ICAO airport designator
Station Type Date Time Source
FQMA METAR 2021/09/20 06:00 UTC NOAA

FQMA 200600Z 02013KT CAVOK 20/12 Q1016 NOSIG


Station Type Date Time Source
FQMA Decoded METAR 2021/09/20 06:00 UTC NOAA

Maputo / Mavalane, Mozambique (FQMA) 25-55S 032-34E 44M
Sep 20, 2021 - 02:00 AM EDT / 2021.09.20 0600 UTC
Wind: from the NNE (020 degrees) at 15 MPH (13 KT):0
Visibility: greater than 7 mile(s):0
Temperature: 68 F (20 C)
Dew Point: 53 F (12 C)
Relative Humidity: 59%
Pressure (altimeter): 30.00 in. Hg (1016 hPa)
ob: FQMA 200600Z 02013KT CAVOK 20/12 Q1016 NOSIG
cycle: 6

Station Type Date Time Source
FQMA TAF 2021/09/20 06:03 UTC NOAA

TAF FQMA 200400Z 2006/2112 02012KT CAVOK TX32/2013Z TN16/2103Z
BECMG 2019/2021 19014KT 9999 BKN020

Example: see airport list